createdAt,value
2016-12-12T16:19:10.217Z,13.71
2016-12-12T16:20:23.751Z,14.5
2016-12-12T16:21:39.025Z,15.15
2016-12-12T16:22:55.490Z,15.67
2016-12-12T16:24:11.580Z,14.83
2016-12-12T16:25:27.402Z,13.54
2016-12-12T16:26:42.259Z,12.42
2016-12-12T16:27:55.059Z,11.52
2016-12-12T16:29:08.988Z,10.88
2016-12-12T16:30:22.600Z,10.42
2016-12-12T16:31:38.936Z,10.07
2016-12-12T16:32:53.378Z,9.71
2016-12-12T16:34:09.713Z,9.49
2016-12-12T16:35:25.904Z,9.34
2016-12-12T16:36:40.329Z,9.12
2016-12-12T16:37:56.235Z,8.9
2016-12-12T16:39:12.536Z,8.81
2016-12-12T16:40:28.348Z,8.76
2016-12-12T16:41:44.556Z,8.76
2016-12-12T16:42:59.670Z,8.55
2016-12-12T16:44:14.603Z,8.53
2016-12-12T16:45:28.646Z,8.42
2016-12-12T16:46:44.631Z,8.28
2016-12-12T16:47:58.524Z,8.28
2016-12-12T16:49:14.515Z,8.28
2016-12-12T16:50:31.319Z,8.17
2016-12-12T16:51:48.071Z,8.14
2016-12-12T16:53:02.798Z,8.18
2016-12-12T16:54:19.143Z,8.25
2016-12-12T16:55:34.309Z,8.04
2016-12-12T16:56:50.617Z,8.04
2016-12-12T16:58:06.768Z,8.03
2016-12-12T16:59:23.576Z,8.08
2016-12-12T17:00:40.594Z,8.04
2016-12-12T17:01:54.111Z,7.94
2016-12-12T17:03:09.080Z,8.02
2016-12-12T17:04:21.119Z,7.94
2016-12-12T17:05:34.673Z,7.97
2016-12-12T17:06:51.099Z,7.99
2016-12-12T17:08:05.855Z,7.97
2016-12-12T17:09:21.952Z,7.94
2016-12-12T17:10:35.752Z,7.94
2016-12-12T17:11:49.621Z,8.02
2016-12-12T17:13:04.177Z,8.02
2016-12-12T17:14:20.970Z,8
2016-12-12T17:15:35.661Z,8
2016-12-12T17:16:51.627Z,7.97
2016-12-12T17:18:06.618Z,7.99
2016-12-12T17:19:22.096Z,7.99
2016-12-12T17:20:38.037Z,7.9
2016-12-12T17:21:54.322Z,7.94
2016-12-12T17:23:09.494Z,7.93
2016-12-12T17:24:24.188Z,7.97
2016-12-12T17:25:37.342Z,7.89
2016-12-12T17:26:53.100Z,7.94
2016-12-12T17:28:07.569Z,7.94
2016-12-12T17:29:23.494Z,7.94
2016-12-12T17:30:36.687Z,8.03
2016-12-12T17:31:50.160Z,7.99
2016-12-12T17:33:04.395Z,7.97
2016-12-12T17:34:19.038Z,8
2016-12-12T17:35:35.627Z,8.04
2016-12-12T17:36:51.706Z,8.03
2016-12-12T17:38:05.374Z,7.93
2016-12-12T17:39:18.900Z,7.97
2016-12-12T17:40:34.031Z,8.02
2016-12-12T17:41:49.129Z,8.02
2016-12-12T17:43:02.576Z,8.03
2016-12-12T17:44:17.349Z,7.96
2016-12-12T17:45:31.352Z,7.94
2016-12-12T17:46:46.209Z,8.04
2016-12-12T17:48:00.962Z,8.03
2016-12-12T17:49:15.600Z,8.1
2016-12-12T17:50:28.895Z,8.1
2016-12-12T17:51:42.921Z,8.08
2016-12-12T17:52:58.273Z,8.07
2016-12-12T17:54:13.708Z,8.1
2016-12-12T17:55:28.964Z,8.08
2016-12-12T17:56:44.434Z,8.02
2016-12-12T17:57:59.687Z,8.04
2016-12-12T17:59:16.573Z,8.11
2016-12-12T18:00:28.973Z,8.1
2016-12-12T18:01:45.344Z,8.04
2016-12-12T18:03:01.393Z,8.08
2016-12-12T18:04:15.180Z,8.1
2016-12-12T18:05:31.469Z,8.02
2016-12-12T18:06:47.561Z,8.1
2016-12-12T18:08:03.471Z,8.11
2016-12-12T18:09:16.906Z,8.03
2016-12-12T18:10:30.463Z,8.02
2016-12-12T18:11:46.554Z,8
2016-12-12T18:13:01.635Z,8.07
2016-12-12T18:14:17.542Z,8.08
2016-12-12T18:15:29.214Z,8.14
2016-12-12T18:16:43.951Z,8.14
2016-12-12T18:17:58.586Z,8.03
2016-12-12T18:19:10.414Z,8.08
2016-12-12T18:20:24.689Z,8.04
2016-12-12T18:21:39.378Z,8
2016-12-12T18:22:55.073Z,8.07
2016-12-12T18:24:09.765Z,8.08
2016-12-12T18:25:23.524Z,8.08
2016-12-12T18:26:36.873Z,8
2016-12-12T18:27:51.313Z,8.1
2016-12-12T18:29:06.692Z,8.08
2016-12-12T18:30:22.293Z,8.07
2016-12-12T18:31:38.200Z,8.11
2016-12-12T18:32:54.693Z,8.11
2016-12-12T18:34:09.017Z,8.07
2016-12-12T18:35:25.334Z,8.02
2016-12-12T18:36:39.782Z,8.1
2016-12-12T18:37:56.253Z,8.11
2016-12-12T18:39:11.293Z,7.94
2016-12-12T18:40:26.388Z,8
2016-12-12T18:41:39.606Z,8.03
2016-12-12T18:42:53.622Z,8.07
2016-12-12T18:44:10.028Z,8.07
2016-12-12T18:45:22.001Z,8.02
2016-12-12T18:46:36.840Z,8.1
2016-12-12T18:47:53.310Z,7.97
2016-12-12T18:49:07.276Z,7.97
2016-12-12T18:50:21.378Z,7.97
2016-12-12T18:51:34.455Z,8.02
2016-12-12T18:52:49.718Z,8.02
2016-12-12T18:54:05.426Z,7.97
2016-12-12T18:55:19.866Z,7.96
2016-12-12T18:56:35.431Z,7.96
2016-12-12T18:57:51.321Z,8.03
2016-12-12T18:59:07.621Z,8.02
2016-12-12T19:00:23.951Z,7.93
2016-12-12T19:01:38.927Z,7.99
2016-12-12T19:02:53.784Z,7.87
2016-12-12T19:04:10.063Z,7.87
2016-12-12T19:05:25.385Z,7.89
2016-12-12T19:06:36.925Z,7.85
2016-12-12T19:07:52.618Z,7.89
2016-12-12T19:09:08.123Z,7.79
2016-12-12T19:10:22.886Z,7.79
2016-12-12T19:11:37.669Z,7.77
2016-12-12T19:12:50.744Z,7.72
2016-12-12T19:14:05.619Z,7.79
2016-12-12T19:15:19.934Z,7.74
2016-12-12T19:16:33.856Z,7.74
2016-12-12T19:17:48.819Z,7.69
2016-12-12T19:19:03.512Z,7.72
2016-12-12T19:20:19.882Z,7.74
2016-12-12T19:21:35.860Z,7.6
2016-12-12T19:22:49.270Z,7.77
2016-12-12T19:24:05.446Z,7.63
2016-12-12T19:25:22.280Z,7.6
2016-12-12T19:26:38.356Z,7.67
2016-12-12T19:27:54.112Z,7.69
2016-12-12T19:29:09.041Z,7.58
2016-12-12T19:30:23.521Z,7.56
2016-12-12T19:31:38.213Z,7.47
2016-12-12T19:32:55.117Z,7.52
2016-12-12T19:34:11.450Z,7.56
2016-12-12T19:35:27.823Z,7.5
2016-12-12T19:36:41.784Z,7.47
2016-12-12T19:37:54.201Z,7.52
2016-12-12T19:39:10.236Z,7.55
2016-12-12T19:40:26.605Z,7.52
2016-12-12T19:41:41.491Z,7.5
2016-12-12T19:42:56.274Z,7.52
2016-12-12T19:44:09.502Z,7.47
2016-12-12T19:45:23.987Z,7.47
2016-12-12T19:46:38.337Z,7.53
2016-12-12T19:47:54.991Z,7.47
2016-12-12T19:49:11.725Z,7.49
2016-12-12T19:50:26.016Z,7.55
2016-12-12T19:51:37.854Z,7.5
2016-12-12T19:52:51.731Z,7.53
2016-12-12T19:54:08.143Z,7.44
2016-12-12T19:55:24.319Z,7.5
2016-12-12T19:56:40.622Z,7.52
2016-12-12T19:57:57.730Z,7.45
2016-12-12T19:59:14.532Z,7.49
2016-12-12T20:00:30.188Z,7.55
2016-12-12T20:01:42.172Z,7.52
2016-12-12T20:02:56.427Z,7.56
2016-12-12T20:04:11.057Z,7.55
2016-12-12T20:05:24.323Z,7.53
2016-12-12T20:06:41.216Z,7.5
2016-12-12T20:07:57.553Z,7.52
2016-12-12T20:09:11.178Z,7.49
2016-12-12T20:10:28.503Z,7.41
2016-12-12T20:11:43.822Z,7.5
2016-12-12T20:12:57.885Z,7.41
2016-12-12T20:14:13.547Z,7.55
2016-12-12T20:15:28.304Z,7.44
2016-12-12T20:16:42.737Z,7.5
2016-12-12T20:17:55.756Z,7.42
2016-12-12T20:19:11.939Z,7.53
2016-12-12T20:20:28.701Z,7.59
2016-12-12T20:21:45.049Z,7.47
2016-12-12T20:23:01.131Z,7.52
2016-12-12T20:24:17.747Z,7.4
2016-12-12T20:25:32.445Z,7.38
2016-12-12T20:26:48.942Z,7.42
2016-12-12T20:28:03.250Z,7.41
2016-12-12T20:29:17.925Z,7.35
2016-12-12T20:30:34.914Z,7.56
2016-12-12T20:31:50.602Z,7.52
2016-12-12T20:33:03.605Z,7.53
2016-12-12T20:34:19.705Z,7.4
2016-12-12T20:35:32.464Z,7.55
2016-12-12T20:36:47.080Z,7.47
2016-12-12T20:38:03.056Z,7.49
2016-12-12T20:39:17.097Z,7.56
2016-12-12T20:40:32.745Z,7.53
2016-12-12T20:41:47.592Z,7.56
2016-12-12T20:43:02.204Z,7.47
2016-12-12T20:44:18.550Z,7.52
2016-12-12T20:45:32.109Z,7.55
2016-12-12T20:46:47.686Z,7.53
2016-12-12T20:48:03.603Z,7.53
2016-12-12T20:49:17.400Z,7.38
2016-12-12T20:50:31.745Z,7.53
2016-12-12T20:51:47.839Z,7.53
2016-12-12T20:53:01.101Z,7.55
2016-12-12T20:54:14.999Z,7.49
2016-12-12T20:55:31.859Z,7.37
2016-12-12T20:56:46.572Z,7.38
2016-12-12T20:58:02.107Z,7.38
2016-12-12T20:59:16.640Z,7.4
2016-12-12T21:00:31.739Z,7.44
2016-12-12T21:01:45.930Z,7.42
2016-12-12T21:03:01.112Z,7.41
2016-12-12T21:06:27.185Z,7.38
2016-12-12T21:07:40.664Z,7.41
2016-12-12T21:08:55.914Z,7.41
2016-12-12T21:10:11.080Z,7.4
2016-12-12T21:14:03.617Z,7.38
2016-12-12T21:15:18.334Z,7.38
2016-12-12T21:16:34.246Z,7.41
2016-12-12T21:17:48.000Z,7.4
2016-12-12T21:19:00.210Z,7.42
2016-12-12T21:20:43.611Z,7.38
2016-12-12T21:22:17.022Z,7.35
2016-12-12T21:23:32.682Z,7.4
2016-12-12T21:24:49.023Z,7.38
2016-12-12T21:26:03.865Z,7.42
2016-12-12T21:27:30.823Z,7.37
2016-12-12T21:28:44.452Z,7.35
2016-12-12T21:29:58.857Z,7.37
2016-12-12T21:31:15.047Z,7.34
2016-12-12T21:32:30.227Z,7.34
2016-12-12T21:33:46.149Z,7.31
2016-12-12T21:35:01.681Z,7.29
2016-12-12T21:36:14.849Z,7.31
2016-12-12T21:37:28.589Z,7.31
2016-12-12T21:38:45.392Z,7.34
2016-12-12T21:40:01.461Z,7.2
2016-12-12T21:41:14.483Z,7.29
2016-12-12T21:42:29.760Z,7.27
2016-12-12T21:43:43.253Z,7.29
2016-12-12T21:44:57.710Z,7.31
2016-12-12T21:46:14.531Z,7.2
2016-12-12T21:47:31.066Z,7.34
2016-12-12T21:48:47.085Z,7.27
2016-12-12T21:50:01.924Z,7.27
2016-12-12T21:51:18.407Z,7.31
2016-12-12T21:52:32.070Z,7.31
2016-12-12T21:53:47.456Z,7.32
2016-12-12T21:55:02.940Z,7.32
2016-12-12T21:56:17.957Z,7.32
2016-12-12T21:57:31.776Z,7.32
2016-12-12T21:58:48.400Z,7.19
2016-12-12T22:00:00.123Z,7.23
2016-12-12T22:01:15.363Z,7.26
2016-12-12T22:02:31.147Z,7.24
2016-12-12T22:03:45.927Z,7.23
2016-12-12T22:05:02.004Z,7.22
2016-12-12T22:06:16.640Z,7.23
2016-12-12T22:07:33.498Z,7.24
2016-12-12T22:08:49.141Z,7.19
2016-12-12T22:10:02.469Z,7.22
2016-12-12T22:11:18.144Z,7.23
2016-12-12T22:12:32.998Z,7.34
2016-12-12T22:13:47.802Z,7.24
2016-12-12T22:15:04.657Z,7.23
2016-12-12T22:16:20.592Z,7.29
2016-12-12T22:17:36.896Z,7.23
2016-12-12T22:18:53.027Z,7.27
2016-12-12T22:20:09.630Z,7.26
2016-12-12T22:21:26.052Z,7.37
2016-12-12T22:22:41.153Z,7.32
2016-12-12T22:23:57.515Z,7.32
2016-12-12T22:25:13.802Z,7.32
2016-12-12T22:26:27.204Z,7.34
2016-12-12T22:27:42.064Z,7.32
2016-12-12T22:28:56.921Z,7.31
2016-12-12T22:30:13.174Z,7.27
2016-12-12T22:31:28.116Z,7.27
2016-12-12T22:32:44.316Z,7.24
2016-12-12T22:33:57.318Z,7.31
2016-12-12T22:35:12.760Z,7.24
2016-12-12T22:36:26.410Z,7.23
2016-12-12T22:37:41.485Z,7.22
2016-12-12T22:38:54.888Z,7.35
2016-12-12T22:40:10.128Z,7.31
2016-12-12T22:41:24.864Z,7.37
2016-12-12T22:42:40.048Z,7.32
2016-12-12T22:43:55.247Z,7.34
2016-12-12T22:45:09.682Z,7.32
2016-12-12T22:46:25.599Z,7.38
2016-12-12T22:47:41.358Z,7.35
2016-12-12T22:48:55.273Z,7.41
2016-12-12T22:50:10.380Z,7.38
2016-12-12T22:51:26.415Z,7.32
2016-12-12T22:52:41.575Z,7.37
2016-12-12T22:53:56.424Z,7.38
2016-12-12T22:55:11.692Z,7.31
2016-12-12T22:56:27.184Z,7.34
2016-12-12T22:57:40.655Z,7.37
2016-12-12T22:58:56.316Z,7.34
2016-12-12T23:00:11.344Z,7.37
2016-12-12T23:01:27.974Z,7.35
2016-12-12T23:02:43.878Z,7.24
2016-12-12T23:04:00.402Z,7.32
2016-12-12T23:05:15.207Z,7.26
2016-12-12T23:06:31.371Z,7.19
2016-12-12T23:07:45.909Z,7.23
2016-12-12T23:09:01.373Z,7.27
2016-12-12T23:10:16.200Z,7.22
2016-12-12T23:11:32.240Z,7.19
2016-12-12T23:12:45.798Z,7.27
2016-12-12T23:13:57.585Z,7.23
2016-12-12T23:15:13.869Z,7.22
2016-12-12T23:16:27.037Z,7.19
2016-12-12T23:17:43.081Z,7.32
2016-12-12T23:18:57.764Z,7.22
2016-12-12T23:20:13.683Z,7.19
2016-12-12T23:21:30.820Z,7.23
2016-12-12T23:22:46.253Z,7.19
2016-12-12T23:24:02.198Z,7.31
2016-12-12T23:25:17.359Z,7.31
2016-12-12T23:26:33.808Z,7.31
2016-12-12T23:27:48.776Z,7.34
2016-12-12T23:29:05.041Z,7.32
2016-12-12T23:30:20.098Z,7.34
2016-12-12T23:31:36.686Z,7.41
2016-12-12T23:32:53.958Z,7.32
2016-12-12T23:34:08.598Z,7.38
2016-12-12T23:35:22.063Z,7.38
2016-12-12T23:36:38.285Z,7.38
2016-12-12T23:37:54.953Z,7.41
2016-12-12T23:39:11.693Z,7.38
2016-12-12T23:40:28.436Z,7.42
2016-12-12T23:41:44.904Z,7.45
2016-12-12T23:42:56.443Z,7.42
2016-12-12T23:44:10.271Z,7.4
2016-12-12T23:45:26.476Z,7.45
2016-12-12T23:46:43.269Z,7.41
2016-12-12T23:47:59.411Z,7.38
2016-12-12T23:49:16.180Z,7.38
2016-12-12T23:50:31.829Z,7.37
2016-12-12T23:51:44.682Z,7.42
2016-12-12T23:52:59.193Z,7.4
2016-12-12T23:54:13.824Z,7.35
2016-12-12T23:55:28.373Z,7.42
2016-12-12T23:56:42.276Z,7.4
2016-12-12T23:57:58.835Z,7.38
2016-12-12T23:59:13.290Z,7.42
